Time;durP1;ratioP1;P1;durP2;ratioP2;P2;SDS_P1;SDS_P2;PMS_P1;PMS_P2;Temp;Humidity;BMP_temperature;BMP_pressure;BME280_temperature;BME280_humidity;BME280_pressure;Samples;Min_cycle;Max_cycle;Signal;HPM_P1;HPM_P2
2021/03/28 05:10:54;;;;;;;10.57;3.20;;;6.20;99.90;;;7.19;70.43;101627.47;5054176;28;20044;-83
2021/03/28 05:13:59;;;;;;;12.30;3.45;;;6.20;99.90;;;7.27;69.81;101635.09;5037919;28;20029;-85
2021/03/28 05:16:58;;;;;;;11.88;2.80;;;6.30;99.90;;;7.19;70.16;101632.22;5037780;28;20460;-83
2021/03/28 05:20:37;;;;;;;10.48;2.50;;;6.30;99.90;;;7.26;70.13;101633.44;5056033;28;20109;-84
2021/03/28 05:23:51;;;;;;;;;;;6.20;99.90;;;7.24;69.81;101632.94;4958896;28;20042;-84
2021/03/28 05:27:27;;;;;;;15.27;2.67;;;6.30;99.90;;;7.40;69.21;101636.19;5038126;28;19908;-84
2021/03/28 05:30:44;;;;;;;10.40;2.25;;;6.30;99.90;;;7.45;68.61;101640.81;5038268;28;20028;-85
2021/03/28 05:33:37;;;;;;;10.23;2.47;;;6.40;99.90;;;7.37;68.87;101640.41;5045150;22;20095;-85
2021/03/28 05:36:34;;;;;;;8.63;2.05;;;6.40;99.90;;;7.47;68.59;101631.03;5065793;28;20089;-84
2021/03/28 05:39:18;;;;;;;;;;;6.50;99.90;;;7.47;68.77;101638.53;5043815;28;20043;-84
2021/03/28 05:42:53;;;;;;;14.30;2.58;;;6.60;99.90;;;7.60;68.02;101632.94;5053822;28;19909;-82
2021/03/28 05:45:46;;;;;;;5.07;1.98;;;6.60;99.90;;;7.65;68.37;101638.38;5020714;28;20491;-86
2021/03/28 05:48:56;;;;;;;10.35;2.53;;;6.70;99.90;;;7.70;67.97;101643.81;5081409;28;20098;-85
2021/03/28 05:51:57;;;;;;;8.27;2.13;;;6.70;99.90;;;7.76;67.98;101637.00;5063732;28;20028;-86
2021/03/28 05:55:18;;;;;;;12.85;2.38;;;6.80;99.90;;;7.75;67.99;101640.06;5082611;28;20029;-87
2021/03/28 05:58:38;;;;;;;7.68;2.33;;;6.80;99.90;;;7.71;67.61;101631.53;5082289;28;20037;-84
2021/03/28 06:01:44;;;;;;;12.68;2.72;;;6.80;99.90;;;7.81;67.95;101634.06;5063855;28;20039;-83
2021/03/28 06:04:55;;;;;;;12.70;2.00;;;6.90;99.90;;;7.91;67.64;101631.03;5082574;28;20032;-86
2021/03/28 06:08:07;;;;;;;12.88;1.95;;;6.90;99.90;;;7.94;67.56;101633.19;5062360;28;20068;-89
2021/03/28 06:11:39;;;;;;;11.60;2.25;;;6.90;99.90;;;7.93;67.81;101637.09;5082941;28;20033;-87
2021/03/28 06:14:43;;;;;;;10.15;1.80;;;7.00;99.90;;;7.93;67.64;101633.50;5067259;28;20089;-85
2021/03/28 06:17:35;;;;;;;6.90;2.25;;;7.00;99.90;;;8.12;67.03;101633.31;5065982;28;20037;-82
2021/03/28 06:20:41;;;;;;;11.90;2.80;;;7.10;99.90;;;8.13;67.43;101623.81;5066333;28;20033;-86
2021/03/28 06:24:08;;;;;;;7.85;2.00;;;7.20;99.90;;;8.44;66.00;101633.84;5064998;28;20589;-83
2021/03/28 06:27:18;;;;;;;8.43;1.85;;;7.30;99.90;;;8.43;66.23;101623.88;5068508;28;20036;-85
2021/03/28 06:30:57;;;;;;;6.82;2.28;;;7.50;99.90;;;8.76;65.89;101623.50;5083342;28;20036;-84
2021/03/28 06:34:13;;;;;;;5.88;1.67;;;7.60;99.90;;;8.57;65.62;101632.13;5006890;28;20030;-86
2021/03/28 06:37:59;;;;;;;9.98;2.47;;;7.80;99.90;;;8.88;64.95;101627.31;5013968;28;20041;-86
2021/03/28 06:41:04;;;;;;;10.25;2.40;;;7.80;99.90;;;8.55;66.05;101630.78;5074656;28;20100;-84
2021/03/28 06:44:04;;;;;;;7.35;1.75;;;7.80;99.90;;;8.73;65.88;101622.16;5069844;28;20024;-84
2021/03/28 06:46:52;;;;;;;7.53;1.92;;;7.90;99.90;;;8.76;65.87;101620.72;5083390;28;20024;-84
2021/03/28 06:50:21;;;;;;;7.53;1.92;;;7.90;99.90;;;8.95;65.23;101624.88;5070796;28;20484;-85
2021/03/28 06:53:15;;;;;;;13.13;2.13;;;7.90;99.90;;;8.95;65.17;101616.53;5071330;28;20028;-87
2021/03/28 06:55:46;;;;;;;9.23;1.77;;;8.00;99.90;;;9.11;64.38;101622.47;5064387;28;20036;-88
2021/03/28 06:58:50;;;;;;;4.97;1.98;;;8.10;99.90;;;9.12;64.79;101612.13;5067646;28;20029;-83
2021/03/28 07:01:53;;;;;;;8.32;2.20;;;8.20;99.90;;;9.12;65.07;101620.50;5067426;28;20044;-85
2021/03/28 07:05:25;;;;;;;6.97;1.60;;;8.20;99.90;;;9.11;64.46;101619.66;5058220;28;20017;-86
2021/03/28 07:08:30;;;;;;;6.88;1.83;;;8.30;99.90;;;9.30;64.33;101606.25;5050630;28;20105;-86
2021/03/28 07:11:23;;;;;;;9.88;2.00;;;8.40;99.90;;;9.33;64.10;101622.31;5080467;28;20468;-86
2021/03/28 07:14:16;;;;;;;6.70;2.20;;;8.40;99.90;;;9.13;65.37;101619.31;5063976;28;20033;-85
2021/03/28 07:17:53;;;;;;;10.73;1.90;;;8.30;99.90;;;9.20;64.86;101620.50;5063419;28;20056;-84
2021/03/28 07:21:29;;;;;;;7.68;1.85;;;8.30;99.90;;;9.24;64.65;101618.72;5060963;28;20028;-86
2021/03/28 07:24:19;;;;;;;8.82;2.55;;;8.30;99.90;;;9.32;64.66;101622.63;5029365;28;20060;-83
2021/03/28 07:27:27;;;;;;;8.88;2.28;;;8.40;99.90;;;9.13;65.88;101622.13;5079627;28;20067;-82
2021/03/28 07:30:44;;;;;;;8.43;2.30;;;8.40;99.90;;;9.39;64.84;101625.78;5013921;28;20387;-84
2021/03/28 07:34:12;;;;;;;5.35;2.30;;;8.50;99.90;;;9.50;64.06;101610.38;5058872;28;20041;-83
2021/03/28 07:37:29;;;;;;;8.68;2.15;;;8.60;99.90;;;9.66;63.95;101611.53;5055113;28;20029;-86
2021/03/28 07:40:49;;;;;;;8.27;2.28;;;8.70;99.90;;;9.83;64.04;101624.63;5066022;28;20208;-85
2021/03/28 07:43:43;;;;;;;5.78;1.67;;;8.80;99.90;;;9.97;63.09;101623.28;5069945;28;20017;-84
2021/03/28 07:47:20;;;;;;;6.63;2.17;;;8.90;99.90;;;9.86;63.71;101619.19;5072127;28;20052;-84
2021/03/28 07:50:31;;;;;;;7.65;1.98;;;8.90;99.90;;;10.03;63.35;101624.75;5055561;28;20127;-84
2021/03/28 07:53:22;;;;;;;9.65;2.33;;;9.00;99.90;;;10.21;63.00;101625.56;5071551;28;20139;-85
2021/03/28 07:56:15;;;;;;;10.98;2.92;;;9.10;99.90;;;10.45;62.08;101630.59;5072589;28;20052;-85
2021/03/28 07:59:50;;;;;;;5.75;1.80;;;9.30;99.90;;;10.26;62.95;101628.19;5071776;28;20035;-87
2021/03/28 08:03:24;;;;;;;6.40;2.28;;;9.30;99.90;;;10.47;62.27;101623.53;5028957;28;20082;-85
2021/03/28 08:06:18;;;;;;;5.68;1.80;;;9.40;99.90;;;10.63;62.31;101634.16;5069819;28;20021;-83
2021/03/28 08:09:44;;;;;;;6.35;1.67;;;9.60;99.90;;;10.76;61.26;101633.09;5070678;28;20519;-85
2021/03/28 08:13:04;;;;;;;8.43;2.25;;;9.70;99.90;;;10.94;60.51;101638.28;5088785;28;20077;-82
2021/03/28 08:16:14;;;;;;;14.35;2.90;;;9.80;99.90;;;10.80;60.97;101634.91;5024782;28;20033;-84
2021/03/28 08:19:36;;;;;;;6.28;1.85;;;10.00;99.90;;;11.07;59.64;101628.03;5068794;28;20020;-85
2021/03/28 08:22:59;;;;;;;6.07;2.00;;;10.10;99.90;;;11.12;59.06;101627.81;5084900;28;20048;-85
2021/03/28 08:25:40;;;;;;;5.43;1.85;;;10.20;99.90;;;11.35;59.14;101629.16;5067658;28;20051;-85
2021/03/28 08:29:03;;;;;;;6.75;2.08;;;10.30;99.90;;;11.52;58.47;101628.22;5066146;28;20484;-84
2021/03/28 08:32:25;;;;;;;8.75;1.92;;;10.50;99.90;;;11.77;59.48;101634.78;5066727;28;20033;-86
2021/03/28 08:36:01;;;;;;;11.23;1.95;;;10.70;99.90;;;12.10;56.99;101632.84;5065719;28;20036;-85
2021/03/28 08:39:06;;;;;;;9.00;1.92;;;10.90;99.90;;;12.09;57.22;101632.00;5066347;28;20029;-87
2021/03/28 08:42:08;;;;;;;7.80;2.00;;;11.00;99.90;;;12.29;56.30;101635.94;5083765;28;20052;-86
2021/03/28 08:45:33;;;;;;;10.70;2.97;;;11.20;99.90;;;12.55;55.58;101638.44;5049753;28;20396;-86
2021/03/28 08:48:48;;;;;;;4.57;1.50;;;11.40;99.90;;;12.53;56.35;101641.56;5004733;28;20041;-83
2021/03/28 08:51:52;;;;;;;7.07;2.10;;;11.40;99.90;;;12.75;56.55;101645.91;4994766;28;20049;-86
2021/03/28 08:55:10;;;;;;;10.25;2.30;;;11.60;99.90;;;12.73;55.73;101639.03;5071035;28;20032;-86
2021/03/28 08:58:07;;;;;;;;;;;11.70;99.90;;;12.79;55.59;101644.06;5052407;28;20036;-85
2021/03/28 09:01:18;;;;;;;9.63;2.20;;;11.70;99.90;;;12.90;55.67;101642.44;5067892;28;19909;-86
2021/03/28 09:04:13;;;;;;;6.53;1.90;;;11.90;99.90;;;13.12;55.35;101646.78;5073727;28;20550;-85
2021/03/28 09:07:04;;;;;;;10.98;2.40;;;11.90;99.90;;;13.02;56.80;101641.63;5089213;28;20028;-84
2021/03/28 09:10:19;;;;;;;9.43;2.25;;;11.90;99.90;;;12.96;55.52;101648.63;5051900;28;20509;-86
2021/03/28 09:13:33;;;;;;;9.45;2.15;;;12.00;99.90;;;12.91;55.11;101635.66;5050998;28;20025;-86
2021/03/28 09:16:41;;;;;;;8.60;2.22;;;11.90;99.90;;;12.77;56.49;101631.56;5068312;28;20032;-84
2021/03/28 09:19:49;;;;;;;7.20;1.88;;;11.80;99.90;;;12.85;56.01;101641.84;5051882;28;20065;-80
2021/03/28 09:23:04;;;;;;;10.10;2.20;;;11.90;99.90;;;12.97;55.65;101636.25;5028930;28;20108;-85
2021/03/28 09:26:05;;;;;;;9.07;1.95;;;12.00;99.90;;;13.19;56.11;101644.22;5067756;28;20025;-84
2021/03/28 09:28:38;;;;;;;10.25;2.13;;;12.10;99.90;;;13.59;54.50;101650.69;5067473;28;20093;-86
2021/03/28 09:31:32;;;;;;;8.77;2.55;;;12.50;99.90;;;14.63;53.06;101641.25;5053346;28;20033;-87
2021/03/28 09:35:05;;;;;;;7.68;2.15;;;13.20;99.90;;;14.66;52.01;101648.97;5054634;28;20033;-87
2021/03/28 09:38:37;;;;;;;10.25;2.05;;;13.70;99.90;;;14.50;51.87;101648.13;5058419;28;20037;-85
2021/03/28 09:41:42;;;;;;;7.97;2.22;;;13.70;99.90;;;14.62;51.44;101640.44;5060725;28;20045;-82
2021/03/28 09:45:10;;;;;;;9.05;2.20;;;13.60;99.90;;;14.83;50.94;101643.00;5060705;28;20029;-84
2021/03/28 09:48:22;;;;;;;10.68;2.25;;;13.70;99.00;;;15.36;51.04;101621.75;5059459;28;20036;-84
2021/03/28 09:51:36;;;;;;;7.10;1.95;;;14.10;99.90;;;15.65;49.67;101635.31;5068134;28;20249;-85
2021/03/28 09:54:58;;;;;;;7.55;2.15;;;14.30;98.80;;;15.31;48.71;101638.94;5076955;28;20036;-86
2021/03/28 09:57:54;;;;;;;8.52;2.38;;;14.40;93.80;;;15.46;48.37;101626.81;5067486;28;20024;-87
2021/03/28 10:01:09;;;;;;;9.70;2.45;;;14.50;93.50;;;15.81;49.38;101613.53;5069338;28;20056;-85
2021/03/28 10:04:33;;;;;;;11.15;2.75;;;14.70;93.90;;;14.83;50.06;101620.50;5075471;28;20020;-87
2021/03/28 10:07:08;;;;;;;5.35;2.10;;;14.20;92.70;;;14.39;51.27;101607.66;5020705;28;20454;-84
2021/03/28 10:10:25;;;;;;;10.55;2.45;;;13.60;95.20;;;14.43;50.99;101597.34;5046897;28;20488;-87
2021/03/28 10:13:57;;;;;;;8.07;2.17;;;13.50;94.70;;;14.78;49.40;101598.25;5049521;28;20037;-84
2021/03/28 10:17:23;;;;;;;9.90;1.98;;;13.70;93.70;;;15.24;48.84;101597.38;5053698;28;20116;-84
2021/03/28 10:20:12;;;;;;;8.50;2.10;;;14.20;93.10;;;15.13;49.39;101592.66;5049742;28;20025;-85
2021/03/28 10:24:16;;;;;;;13.27;2.58;;;14.10;92.60;;;15.47;48.92;101586.22;5054411;28;20025;-87
2021/03/28 10:27:02;;;;;;;7.40;2.22;;;14.30;92.20;;;15.44;48.39;101589.78;5062269;28;20167;-84
2021/03/28 10:30:44;;;;;;;12.35;2.75;;;14.50;91.50;;;15.17;48.73;101590.75;5058542;28;20029;-85
2021/03/28 10:33:48;;;;;;;5.90;1.85;;;14.40;90.60;;;15.37;48.72;101600.06;5068767;28;20090;-87
2021/03/28 10:36:57;;;;;;;6.70;1.90;;;14.40;91.40;;;14.99;48.42;101603.59;5071462;28;20025;-85
2021/03/28 10:40:26;;;;;;;6.90;1.70;;;14.10;90.20;;;15.41;46.71;101590.50;5069698;28;20460;-86
2021/03/28 10:43:38;;;;;;;7.63;1.70;;;14.20;89.30;;;15.51;45.48;101594.78;5045641;28;20288;-86
2021/03/28 10:47:16;;;;;;;7.22;1.77;;;14.30;84.80;;;16.16;41.62;101596.53;5066429;28;20029;-83
2021/03/28 10:50:08;;;;;;;6.35;1.25;;;15.00;80.20;;;16.62;40.35;101600.25;5050708;28;20033;-85
2021/03/28 10:53:30;;;;;;;7.95;1.55;;;15.50;71.20;;;17.15;39.48;101586.97;5046901;28;20037;-86
2021/03/28 10:56:40;;;;;;;5.03;1.67;;;15.90;68.40;;;16.76;38.42;101596.84;5042412;28;20083;-85
2021/03/28 11:00:08;;;;;;;7.70;1.70;;;15.80;64.60;;;17.26;38.26;101596.44;5043837;28;20029;-86
2021/03/28 11:03:47;;;;;;;7.38;1.67;;;16.00;65.70;;;17.23;38.39;101590.75;5059609;28;20025;-86
2021/03/28 11:06:41;;;;;;;;;;;16.10;65.00;;;17.20;38.96;101592.31;5045018;28;20029;-86
2021/03/28 11:09:44;;;;;;;7.10;1.70;;;16.00;63.40;;;17.48;39.39;101588.25;5052381;28;19912;-87
2021/03/28 11:13:06;;;;;;;4.13;1.20;;;16.30;65.40;;;16.79;39.39;101596.88;5062834;28;20087;-87
2021/03/28 11:16:14;;;;;;;8.05;1.77;;;15.90;64.00;;;16.69;40.17;101606.00;5061727;28;20031;-86
2021/03/28 11:19:30;;;;;;;4.60;1.50;;;15.60;64.90;;;15.83;40.98;101596.25;5017182;28;20060;-86
2021/03/28 11:22:25;;;;;;;10.65;1.63;;;15.10;65.70;;;15.48;42.22;101579.41;5044330;28;20143;-85
2021/03/28 11:25:24;;;;;;;8.70;1.35;;;14.70;67.50;;;15.07;42.84;101591.31;5046632;28;20028;-86
2021/03/28 11:28:38;;;;;;;4.07;1.52;;;14.40;67.60;;;15.23;43.14;101592.09;5047645;28;20054;-86
2021/03/28 11:31:54;;;;;;;10.50;1.70;;;14.30;69.90;;;14.94;44.17;101573.72;5051627;28;20029;-87
2021/03/28 11:35:05;;;;;;;7.50;1.38;;;14.10;70.10;;;15.37;43.62;101597.25;5051345;28;20044;-86
2021/03/28 11:37:43;;;;;;;5.85;1.30;;;14.20;71.70;;;15.55;42.90;101576.78;5043601;28;20029;-87
2021/03/28 11:40:27;;;;;;;6.00;1.60;;;14.40;71.40;;;15.28;42.65;101572.91;5059814;28;20037;-86
2021/03/28 11:43:03;;;;;;;7.55;1.80;;;14.40;69.10;;;15.91;42.71;101571.88;5055085;28;20427;-85
2021/03/28 11:45:46;;;;;;;;;;;14.70;70.80;;;16.13;41.29;101577.56;5069930;28;20096;-87
2021/03/28 11:49:06;;;;;;;8.93;1.95;;;15.00;68.60;;;16.03;41.75;101592.25;5069151;28;19928;-83
2021/03/28 11:51:37;;;;;;;7.75;1.70;;;15.20;67.60;;;16.45;40.82;101580.97;5068579;28;20029;-84
2021/03/28 11:54:10;;;;;;;4.75;1.67;;;15.30;67.10;;;16.50;40.54;101585.47;5081378;28;20047;-86
2021/03/28 11:56:55;;;;;;;8.82;1.65;;;15.40;66.20;;;16.47;41.79;101591.88;5063773;28;20073;-83
2021/03/28 11:59:24;;;;;;;10.80;2.08;;;15.40;66.90;;;16.20;41.78;101571.22;5063202;28;20021;-84
2021/03/28 12:01:57;;;;;;;7.40;1.60;;;15.30;66.90;;;16.16;40.58;101582.44;5085269;28;20111;-88
2021/03/28 12:05:05;;;;;;;8.85;1.70;;;15.20;65.70;;;15.61;41.11;101580.09;5073267;28;20029;-85
2021/03/28 12:07:42;;;;;;;5.32;1.73;;;15.00;65.30;;;15.93;41.38;101589.19;5018822;28;20104;-86
2021/03/28 12:10:08;;;;;;;8.02;1.60;;;15.00;66.40;;;15.98;41.20;101589.75;5070938;28;20048;-88
2021/03/28 12:13:29;;;;;;;11.38;2.25;;;15.10;66.10;;;16.07;41.09;101586.69;5084866;28;20040;-87
2021/03/28 12:16:05;;;;;;;5.93;1.55;;;15.20;64.70;;;15.91;40.66;101592.41;5064842;28;20020;-86
2021/03/28 12:18:45;;;;;;;8.07;1.92;;;15.20;64.70;;;16.15;41.23;101588.47;5095674;28;20047;-83
2021/03/28 12:21:32;;;;;;;6.35;1.30;;;15.20;66.30;;;16.14;40.17;101587.66;5069906;28;20036;-87
2021/03/28 12:24:12;;;;;;;8.40;1.90;;;15.30;64.50;;;16.11;41.41;101577.13;5064409;28;20029;-86
2021/03/28 12:26:37;;;;;;;7.75;1.90;;;15.20;65.70;;;16.24;39.54;101589.84;5065234;28;20132;-85
2021/03/28 12:29:36;;;;;;;12.65;2.22;;;15.30;63.70;;;15.95;41.52;101598.13;5063744;28;20093;-84
2021/03/28 12:32:54;;;;;;;8.20;1.88;;;15.20;65.80;;;16.24;41.03;101595.50;5063890;28;20029;-85
2021/03/28 12:35:52;;;;;;;7.70;1.92;;;15.20;66.50;;;15.95;42.41;101582.03;5068665;28;20036;-85
2021/03/28 12:38:28;;;;;;;7.80;1.75;;;15.10;66.80;;;16.12;42.00;101584.38;5064597;28;20079;-88
2021/03/28 12:41:12;;;;;;;10.02;1.98;;;15.20;67.00;;;16.17;42.00;101589.72;5054616;28;20024;-82
2021/03/28 12:43:55;;;;;;;8.75;2.40;;;15.20;67.10;;;16.22;42.22;101575.31;5065196;28;20139;-85
2021/03/28 12:46:24;;;;;;;12.73;2.95;;;15.10;67.80;;;16.12;41.64;101586.38;5051713;28;20025;-87
2021/03/28 12:49:15;;;;;;;5.95;2.17;;;15.20;66.70;;;16.03;41.95;101574.53;5058989;28;20028;-86
2021/03/28 12:51:50;;;;;;;6.88;1.70;;;15.10;66.30;;;15.83;42.62;101580.16;5063666;28;20037;-86
2021/03/28 12:54:31;;;;;;;;;;;14.90;67.80;;;15.61;42.50;101575.28;5083027;28;20445;-85
2021/03/28 12:57:34;;;;;;;7.00;1.67;;;14.70;67.20;;;15.93;42.26;101587.22;5066645;28;19947;-88
2021/03/28 13:00:40;;;;;;;9.77;2.03;;;14.90;67.90;;;16.43;41.28;101574.06;5072871;28;20037;-86
2021/03/28 13:03:42;;;;;;;8.35;1.73;;;15.10;67.50;;;15.85;41.84;101559.28;5065972;28;20074;-86
2021/03/28 13:06:48;;;;;;;10.30;2.25;;;15.00;66.10;;;15.65;41.87;101567.72;5064488;28;20130;-87
2021/03/28 13:09:17;;;;;;;6.87;2.10;;;14.80;66.40;;;15.37;43.10;101563.47;5063363;28;20502;-84
2021/03/28 13:11:55;;;;;;;5.63;1.88;;;14.50;68.20;;;15.37;43.39;101543.75;5061038;28;20749;-85
2021/03/28 13:14:47;;;;;;;7.88;1.88;;;14.50;68.50;;;15.31;43.13;101572.19;5062968;28;20024;-86
2021/03/28 13:17:28;;;;;;;6.53;2.38;;;14.50;68.50;;;15.42;42.21;101558.34;5064490;28;20036;-90
2021/03/28 13:20:40;;;;;;;7.18;1.63;;;14.50;67.70;;;15.47;42.90;101560.06;5082236;28;20173;-86
2021/03/28 13:23:49;;;;;;;9.02;2.20;;;14.50;68.10;;;15.52;41.97;101557.78;5034477;28;20032;-89
2021/03/28 13:26:55;;;;;;;6.07;2.13;;;14.50;67.10;;;15.47;42.05;101552.44;5015284;28;20070;-89
2021/03/28 13:29:40;;;;;;;8.10;2.03;;;14.50;67.10;;;15.57;42.09;101560.31;5061478;28;20341;-88
2021/03/28 13:32:31;;;;;;;8.35;2.33;;;14.60;67.10;;;15.36;42.83;101556.19;5079848;28;20046;-86
2021/03/28 13:35:43;;;;;;;6.50;1.85;;;14.50;67.70;;;15.29;42.71;101560.47;5064210;28;20077;-84
2021/03/28 13:38:25;;;;;;;7.40;2.00;;;14.40;68.00;;;15.13;43.39;101564.53;5079196;28;20540;-89
2021/03/28 13:41:03;;;;;;;8.63;2.10;;;14.30;68.70;;;14.94;43.79;101553.22;5058455;28;20079;-87
2021/03/28 13:43:37;;;;;;;7.63;1.75;;;14.20;69.30;;;15.16;43.45;101549.72;5057798;28;20484;-88
2021/03/28 13:46:16;;;;;;;6.07;2.00;;;14.20;68.90;;;15.34;43.10;101545.31;5057358;28;20033;-88
2021/03/28 13:48:48;;;;;;;6.30;1.77;;;14.40;68.90;;;15.64;42.64;101546.38;5058154;28;20029;-85
2021/03/28 13:51:19;;;;;;;5.22;1.98;;;14.50;69.70;;;15.75;41.25;101552.25;5039013;28;20029;-87
2021/03/28 13:53:54;;;;;;;10.43;2.53;;;14.60;66.50;;;15.80;40.52;101537.84;5038977;28;20035;-86
2021/03/28 13:56:50;;;;;;;4.87;1.50;;;14.70;65.40;;;15.69;41.57;101551.72;5037682;28;20043;-84
2021/03/28 13:59:27;;;;;;;3.60;1.58;;;14.60;66.20;;;15.33;41.72;101546.50;5038436;28;20032;-86
2021/03/28 14:02:23;;;;;;;10.45;1.80;;;14.50;66.10;;;15.20;41.51;101547.81;5058641;28;20127;-89
2021/03/28 14:05:07;;;;;;;7.47;1.90;;;14.40;65.20;;;15.19;41.10;101555.44;5040737;28;20036;-90
2021/03/28 14:07:40;;;;;;;6.18;2.10;;;14.30;65.80;;;15.58;41.57;101549.88;5058726;28;20033;-88
2021/03/28 14:10:17;;;;;;;6.82;1.60;;;14.30;66.70;;;15.67;41.32;101547.63;5057861;28;20025;-88
2021/03/28 14:13:36;;;;;;;7.30;2.00;;;14.40;66.70;;;15.44;42.07;101550.38;5056414;28;20029;-87
2021/03/28 14:16:02;;;;;;;6.53;2.03;;;14.40;66.80;;;15.36;42.53;101544.94;5056633;28;20025;-84
2021/03/28 14:18:39;;;;;;;8.82;2.17;;;14.30;67.40;;;15.34;41.60;101536.88;5060159;28;20056;-85
2021/03/28 14:21:35;;;;;;;11.18;1.77;;;14.40;66.50;;;15.25;41.18;101536.28;5061514;28;20025;-84
2021/03/28 14:24:15;;;;;;;5.07;1.65;;;14.30;65.90;;;15.34;41.46;101530.41;5061453;28;20032;-85
2021/03/28 14:27:24;;;;;;;5.82;1.75;;;14.30;67.10;;;15.46;42.94;101553.63;5058628;28;20027;-87
2021/03/28 14:30:24;;;;;;;10.43;1.80;;;14.30;67.30;;;15.56;42.48;101555.88;5058521;28;20025;-88
2021/03/28 14:33:20;;;;;;;9.88;2.05;;;14.30;68.00;;;15.49;42.35;101541.66;5059460;28;20033;-86
2021/03/28 14:36:38;;;;;;;;;;;14.30;68.20;;;15.38;42.87;101539.78;5060285;28;20064;-87
2021/03/28 14:39:50;;;;;;;8.13;2.45;;;14.30;68.60;;;15.25;42.81;101550.34;5058934;28;19909;-87
2021/03/28 14:42:28;;;;;;;9.85;2.30;;;14.20;68.20;;;15.10;43.09;101540.75;5059670;28;20033;-87
2021/03/28 14:45:26;;;;;;;4.38;1.85;;;14.10;68.40;;;15.35;42.93;101546.13;5061430;28;20552;-88
2021/03/28 14:48:43;;;;;;;8.80;2.10;;;14.10;69.40;;;15.05;42.66;101538.25;5063164;28;20079;-86
2021/03/28 14:52:02;;;;;;;7.97;2.42;;;14.10;68.60;;;15.51;42.91;101542.06;5077677;28;20033;-85
2021/03/28 14:54:54;;;;;;;8.75;2.50;;;14.30;69.80;;;15.72;42.15;101545.34;5060291;28;20040;-85
2021/03/28 14:58:24;;;;;;;6.35;2.92;;;14.50;67.80;;;15.98;41.41;101547.47;5059852;28;20024;-84
2021/03/28 15:01:28;;;;;;;14.93;6.45;;;14.60;67.70;;;16.21;41.28;101539.06;5072122;28;20020;-82
2021/03/28 15:04:36;;;;;;;4.80;1.67;;;15.00;65.90;;;16.42;40.67;101542.22;5064679;28;20033;-89
2021/03/28 15:07:40;;;;;;;11.45;5.85;;;15.00;66.50;;;16.41;42.06;101534.97;5061313;28;20105;-85
2021/03/28 15:10:33;;;;;;;4.35;1.70;;;15.10;68.00;;;16.11;41.06;101539.66;5060075;28;20086;-86
2021/03/28 15:13:42;;;;;;;6.53;2.03;;;15.00;65.90;;;16.13;42.68;101551.38;5075429;28;20106;-87
2021/03/28 15:16:39;;;;;;;6.80;2.28;;;14.80;67.70;;;16.35;41.95;101551.38;5065633;28;20185;-82
2021/03/28 15:19:37;;;;;;;10.77;2.67;;;14.80;69.50;;;16.21;42.35;101547.50;5068345;28;20028;-82
2021/03/28 15:22:21;;;;;;;8.27;1.90;;;14.80;66.80;;;15.77;41.15;101555.50;5069860;28;20417;-86
2021/03/28 15:25:22;;;;;;;8.95;2.45;;;14.70;66.10;;;15.98;41.92;101557.94;5066717;28;20034;-85
2021/03/28 15:28:30;;;;;;;8.38;2.05;;;14.80;66.80;;;15.96;46.78;101554.69;5066414;28;20056;-87
2021/03/28 15:31:59;;;;;;;11.23;3.97;;;14.60;69.50;;;16.31;42.98;101552.53;5077237;28;20067;-85
2021/03/28 15:35:12;;;;;;;16.38;4.30;;;14.70;79.10;;;16.13;43.30;101565.47;5059931;28;20416;-83
2021/03/28 15:38:38;;;;;;;10.25;3.78;;;14.80;72.10;;;15.66;45.67;101558.09;5069666;28;20029;-87
2021/03/28 15:41:23;;;;;;;11.65;3.70;;;14.50;73.60;;;15.98;44.67;101563.56;5050135;28;20036;-87
2021/03/28 15:44:20;;;;;;;13.40;6.30;;;14.60;73.60;;;16.11;44.86;101560.22;5049549;28;20075;-87
2021/03/28 15:48:00;;;;;;;8.68;2.72;;;14.70;74.10;;;15.73;44.23;101566.69;5060110;28;20025;-86
2021/03/28 15:50:56;;;;;;;57.55;34.83;;;14.50;71.90;;;16.01;43.93;101576.91;5070179;28;20040;-83
2021/03/28 15:54:19;;;;;;;176.55;63.53;;;14.70;73.90;;;15.99;42.82;101579.28;5051518;28;20040;-86
2021/03/28 15:57:37;;;;;;;19.85;6.57;;;14.60;70.70;;;15.65;43.47;101569.72;5063571;28;20021;-82
2021/03/28 16:00:22;;;;;;;34.92;8.93;;;14.50;70.00;;;16.02;43.77;101570.88;5054121;28;20036;-85
2021/03/28 16:03:48;;;;;;;20.73;6.10;;;14.50;71.80;;;15.62;42.97;101573.28;5068932;28;20029;-84
2021/03/28 16:07:16;;;;;;;9.35;3.88;;;14.50;70.10;;;16.06;42.73;101571.78;5066759;28;20064;-87
2021/03/28 16:10:34;;;;;;;6.35;1.88;;;14.50;70.50;;;15.73;42.74;101561.03;5069515;28;20433;-88
2021/03/28 16:13:03;;;;;;;13.48;4.65;;;14.60;69.70;;;15.30;44.01;101562.13;5050204;28;20127;-86
2021/03/28 16:16:16;;;;;;;6.25;2.15;;;14.20;70.90;;;15.46;44.09;101564.06;5052469;28;20078;-86
2021/03/28 16:19:41;;;;;;;10.85;4.22;;;14.10;72.30;;;15.52;45.71;101562.59;5055720;28;20097;-86
2021/03/28 16:22:59;;;;;;;7.25;1.80;;;14.00;74.90;;;15.59;44.37;101562.75;5051923;28;20043;-85
2021/03/28 16:26:46;;;;;;;13.40;4.88;;;14.00;72.90;;;15.59;43.95;101565.59;5053514;28;20087;-87
2021/03/28 16:29:32;;;;;;;12.57;5.35;;;14.10;73.60;;;15.69;44.34;101570.63;5041809;28;20107;-87
2021/03/28 16:32:49;;;;;;;19.60;8.77;;;14.10;73.00;;;15.72;45.64;101561.44;5054201;28;20050;-88
2021/03/28 16:36:13;;;;;;;15.93;7.20;;;14.20;75.20;;;15.76;44.15;101560.31;5055119;28;20059;-85
2021/03/28 16:38:53;;;;;;;7.78;1.73;;;14.20;73.20;;;15.10;44.81;101562.44;5023280;28;20119;-85
2021/03/28 16:42:25;;;;;;;8.55;2.35;;;13.90;72.60;;;14.87;45.50;101556.69;5078395;28;20024;-85
2021/03/28 16:45:24;;;;;;;7.68;2.28;;;13.70;74.00;;;14.79;45.87;101557.69;5071900;28;20051;-87
2021/03/28 16:47:56;;;;;;;7.53;2.70;;;13.50;75.60;;;14.52;46.25;101567.03;5069559;28;20032;-86
2021/03/28 16:50:47;;;;;;;7.32;2.53;;;13.30;75.70;;;14.49;46.04;101564.97;5051914;28;20100;-86
2021/03/28 16:54:05;;;;;;;9.15;2.28;;;13.20;75.20;;;14.46;46.90;101569.31;5047463;28;20053;-87
2021/03/28 16:57:15;;;;;;;8.68;2.10;;;13.10;77.90;;;14.47;46.64;101564.53;5035123;28;20037;-85
2021/03/28 17:00:10;;;;;;;13.23;2.70;;;13.10;77.50;;;14.27;46.97;101567.19;5005080;28;20033;-85
2021/03/28 17:02:46;;;;;;;8.68;2.10;;;13.00;76.70;;;14.35;47.45;101559.00;5042872;28;20109;-85
2021/03/28 17:05:31;;;;;;;;;;;13.00;78.40;;;14.33;47.13;101555.69;5043055;28;20024;-86
2021/03/28 17:08:14;;;;;;;5.57;1.75;;;12.90;77.80;;;14.21;47.10;101548.97;5058228;28;19912;-85
2021/03/28 17:10:54;;;;;;;6.47;2.58;;;12.90;77.80;;;14.17;47.57;101561.28;5042717;28;20037;-85
2021/03/28 17:13:28;;;;;;;9.93;2.15;;;12.80;79.30;;;14.14;47.93;101557.22;5042956;28;20045;-86
2021/03/28 17:16:33;;;;;;;9.27;1.73;;;12.80;79.80;;;14.18;47.65;101557.31;5063197;28;20108;-85
2021/03/28 17:19:38;;;;;;;10.63;2.17;;;12.70;79.80;;;14.06;47.63;101558.19;5036662;28;20087;-87
2021/03/28 17:22:50;;;;;;;7.15;2.30;;;12.70;79.20;;;13.99;47.95;101569.25;5043241;28;20100;-86
2021/03/28 17:25:45;;;;;;;5.15;1.95;;;12.70;80.60;;;14.01;48.30;101563.25;5041030;28;20029;-84
2021/03/28 17:28:12;;;;;;;8.90;2.58;;;12.70;80.50;;;13.98;48.22;101564.78;5059190;28;20033;-87
2021/03/28 17:31:42;;;;;;;8.32;2.10;;;12.70;80.10;;;14.15;47.97;101564.47;5057935;28;20033;-86
2021/03/28 17:34:52;;;;;;;6.40;2.03;;;12.70;81.20;;;14.06;47.80;101563.81;5046332;28;20044;-87
2021/03/28 17:37:24;;;;;;;9.90;2.70;;;12.60;80.70;;;13.96;48.66;101575.59;5038592;28;20037;-87
2021/03/28 17:40:08;;;;;;;5.30;2.13;;;12.60;81.70;;;13.91;48.58;101573.00;5057436;28;20499;-85
2021/03/28 17:42:34;;;;;;;10.13;2.30;;;12.60;81.30;;;13.96;48.68;101577.56;5057927;28;20125;-87
2021/03/28 17:45:27;;;;;;;8.18;2.30;;;12.60;82.00;;;13.90;48.76;101582.59;5056851;28;20504;-88
2021/03/28 17:48:02;;;;;;;8.73;2.22;;;12.60;82.80;;;13.90;48.26;101587.44;5040328;28;20426;-86
2021/03/28 17:50:33;;;;;;;6.55;2.25;;;12.60;81.90;;;13.96;48.54;101584.00;5053296;28;20033;-88
2021/03/28 17:53:20;;;;;;;8.93;1.90;;;12.60;82.10;;;13.95;48.88;101587.97;5058472;28;20049;-89